createdAt,value
2022-09-05T00:00:05.573Z,100403.22
2022-09-05T00:00:37.274Z,100402.13
2022-09-05T00:01:08.843Z,100402.13
2022-09-05T00:01:42.175Z,100398.28
2022-09-05T00:02:14.054Z,100403.75
2022-09-05T00:02:48.771Z,100403.75
2022-09-05T00:03:21.011Z,100398.78
2022-09-05T00:03:52.706Z,100401.00
2022-09-05T00:04:25.858Z,100396.34
2022-09-05T00:04:57.870Z,100402.13
2022-09-05T00:05:29.268Z,100397.47
2022-09-05T00:06:02.539Z,100401.81
2022-09-05T00:06:35.536Z,100397.75
2022-09-05T00:07:06.920Z,100403.22
2022-09-05T00:07:59.031Z,100396.13
2022-09-05T00:08:29.921Z,100393.69
2022-09-05T00:09:02.007Z,100391.75
2022-09-05T00:09:33.447Z,100400.78
2022-09-05T00:10:05.795Z,100390.94
2022-09-05T00:11:19.463Z,100398.34
2022-09-05T00:11:43.215Z,100390.13
2022-09-05T00:12:15.477Z,100396.69
2022-09-05T00:12:47.081Z,100398.34
2022-09-05T00:13:18.490Z,100397.53
2022-09-05T00:13:50.291Z,100394.78
2022-09-05T00:14:57.268Z,100395.59
2022-09-05T00:15:17.290Z,100392.03
2022-09-05T00:15:50.111Z,100390.72
2022-09-05T00:16:21.580Z,100395.06
2022-09-05T00:16:53.090Z,100395.88
2022-09-05T00:17:27.833Z,100390.72
2022-09-05T00:20:55.135Z,100391.81
2022-09-05T00:22:31.767Z,100392.94
2022-09-05T00:24:18.791Z,100384.19
2022-09-05T00:24:25.379Z,100386.94
2022-09-05T00:24:25.588Z,100396.25
2022-09-05T00:24:28.182Z,100388.03
2022-09-05T00:24:32.276Z,100390.47
2022-09-05T00:24:35.329Z,100389.66
2022-09-05T00:25:31.308Z,100391.28
2022-09-05T00:26:04.644Z,100388.56
2022-09-05T00:26:36.283Z,100388.84
2022-09-05T00:27:10.377Z,100388.84
2022-09-05T00:27:42.046Z,100388.31
2022-09-05T00:28:25.652Z,100388.03
2022-09-05T00:28:57.879Z,100390.78
2022-09-05T00:29:46.511Z,100390.78
2022-09-05T00:31:07.182Z,100387.50
2022-09-05T00:31:53.454Z,100392.97
2022-09-05T00:32:05.157Z,100391.34
2022-09-05T00:32:36.605Z,100395.44
2022-09-05T00:33:16.955Z,100388.03
2022-09-05T00:33:49.584Z,100394.31
2022-09-05T00:34:21.908Z,100386.34
2022-09-05T00:34:53.316Z,100386.63
2022-09-05T00:35:26.064Z,100392.94
2022-09-05T00:35:57.595Z,100388.56
2022-09-05T00:36:33.030Z,100386.13
2022-09-05T00:37:04.870Z,100382.28
2022-09-05T00:37:37.078Z,100392.94
2022-09-05T00:38:08.853Z,100387.44
2022-09-05T00:38:40.298Z,100385.81
2022-09-05T00:39:11.905Z,100395.66
2022-09-05T00:39:47.947Z,100388.84
2022-09-05T00:40:25.261Z,100389.38
2022-09-05T00:40:57.003Z,100384.19
2022-09-05T00:41:28.869Z,100392.41
2022-09-05T00:42:05.521Z,100390.19
2022-09-05T00:42:37.089Z,100385.31
2022-09-05T00:43:09.149Z,100390.78
2022-09-05T00:43:40.593Z,100388.03
2022-09-05T00:44:12.461Z,100390.78
2022-09-05T00:44:44.105Z,100392.41
2022-09-05T00:45:19.809Z,100392.41
2022-09-05T00:45:51.358Z,100386.94
2022-09-05T00:46:26.047Z,100394.56
2022-09-05T00:46:57.602Z,100392.09
2022-09-05T00:47:29.231Z,100382.28
2022-09-05T00:48:00.657Z,100385.81
2022-09-05T00:48:32.246Z,100392.09
2022-09-05T00:49:03.664Z,100388.28
2022-09-05T00:49:35.235Z,100389.38
2022-09-05T00:50:06.976Z,100392.94
2022-09-05T00:50:38.521Z,100389.66
2022-09-05T00:51:10.281Z,100386.94
2022-09-05T00:51:42.191Z,100385.31
2022-09-05T00:52:13.648Z,100384.19
2022-09-05T00:52:52.936Z,100382.28
2022-09-05T00:53:37.331Z,100388.56
2022-09-05T00:54:09.424Z,100388.56
2022-09-05T00:54:41.913Z,100394.03
2022-09-05T00:55:13.563Z,100393.22
2022-09-05T00:55:45.194Z,100388.56
2022-09-05T00:56:16.790Z,100388.56
2022-09-05T00:56:48.456Z,100383.09
2022-09-05T00:57:20.416Z,100388.56
2022-09-05T00:57:52.912Z,100385.00
2022-09-05T00:58:24.366Z,100386.94
2022-09-05T00:58:55.930Z,100386.94
2022-09-05T00:59:27.676Z,100386.41
2022-09-05T00:59:59.337Z,100388.03
2022-09-05T01:00:30.804Z,100385.31
2022-09-05T01:01:02.309Z,100389.66
2022-09-05T01:01:52.674Z,100389.13
2022-09-05T01:02:24.737Z,100383.66
2022-09-05T01:02:56.668Z,100380.13
2022-09-05T01:03:28.110Z,100378.50
2022-09-05T01:04:00.094Z,100385.06
2022-09-05T01:04:36.375Z,100382.63
2022-09-05T01:05:08.627Z,100388.09
2022-09-05T01:05:40.270Z,100384.25
2022-09-05T01:06:12.413Z,100388.09
2022-09-05T01:06:44.544Z,100379.06
2022-09-05T01:07:16.728Z,100384.84
2022-09-05T01:07:48.438Z,100382.91
2022-09-05T01:08:20.536Z,100378.56
2022-09-05T01:08:52.678Z,100386.47
2022-09-05T01:09:24.296Z,100384.03
2022-09-05T01:09:55.961Z,100385.66
2022-09-05T01:10:27.375Z,100387.56
2022-09-05T01:10:59.125Z,100387.88
2022-09-05T01:11:30.576Z,100390.31
2022-09-05T01:12:02.396Z,100390.31
2022-09-05T01:12:33.862Z,100382.38
2022-09-05T01:13:05.457Z,100387.88
2022-09-05T01:13:37.049Z,100389.78
2022-09-05T01:14:13.042Z,100385.94
2022-09-05T01:14:44.625Z,100387.88
2022-09-05T01:15:16.292Z,100384.31
2022-09-05T01:15:47.965Z,100386.22
2022-09-05T01:16:19.479Z,100386.75
2022-09-05T01:16:51.227Z,100385.13
2022-09-05T01:17:22.605Z,100389.50
2022-09-05T01:17:54.318Z,100390.31
2022-09-05T01:18:26.066Z,100387.03
2022-09-05T01:18:57.432Z,100385.41
2022-09-05T01:19:29.375Z,100384.59
2022-09-05T01:20:04.875Z,100382.97
2022-09-05T01:20:51.269Z,100389.56
2022-09-05T01:21:25.465Z,100388.72
2022-09-05T01:21:57.101Z,100388.44
2022-09-05T01:22:28.533Z,100381.34
2022-09-05T01:23:00.302Z,100387.63
2022-09-05T01:23:38.280Z,100385.72
2022-09-05T01:24:10.030Z,100385.72
2022-09-05T01:24:41.565Z,100380.25
2022-09-05T01:25:13.409Z,100382.16
2022-09-05T01:25:52.422Z,100387.91
2022-09-05T01:26:26.742Z,100386.81
2022-09-05T01:26:58.152Z,100380.53
2022-09-05T01:27:33.895Z,100386.00
2022-09-05T01:29:15.298Z,100384.38
2022-09-05T01:29:19.150Z,100397.22
2022-09-05T01:29:51.414Z,100389.84
2022-09-05T01:30:23.283Z,100391.75
2022-09-05T01:31:04.066Z,100389.03
2022-09-05T01:31:35.713Z,100387.09
2022-09-05T01:32:07.232Z,100395.31
2022-09-05T01:32:38.700Z,100390.13
2022-09-05T01:33:10.285Z,100393.69
2022-09-05T01:33:41.791Z,100390.94
2022-09-05T01:34:13.177Z,100387.69
2022-09-05T01:34:44.589Z,100392.06
2022-09-05T01:35:16.501Z,100392.06
2022-09-05T01:35:54.882Z,100393.69
2022-09-05T01:36:35.355Z,100392.34
2022-09-05T01:37:06.971Z,100393.16
2022-09-05T01:37:38.489Z,100389.59
2022-09-05T01:38:10.330Z,100390.41
2022-09-05T01:38:46.946Z,100386.88
2022-09-05T01:40:15.012Z,100388.50
2022-09-05T01:40:24.707Z,100389.59
2022-09-05T01:41:04.604Z,100392.34
2022-09-05T01:41:51.259Z,100393.16
2022-09-05T01:42:22.930Z,100389.59
2022-09-05T01:42:54.792Z,100391.25
2022-09-05T01:43:26.387Z,100387.69
2022-09-05T01:43:58.080Z,100388.50
2022-09-05T01:44:29.473Z,100386.88
2022-09-05T01:45:01.369Z,100388.78
2022-09-05T01:45:39.981Z,100389.91
2022-09-05T01:46:11.991Z,100383.63
2022-09-05T01:46:43.787Z,100386.06
2022-09-05T01:47:29.441Z,100388.25
2022-09-05T01:48:03.064Z,100381.97
2022-09-05T01:48:36.730Z,100381.69
2022-09-05T01:49:09.612Z,100382.50
2022-09-05T01:49:41.476Z,100384.44
2022-09-05T01:50:15.081Z,100380.88
2022-09-05T01:50:48.071Z,100384.44
2022-09-05T01:51:29.505Z,100385.25
2022-09-05T01:52:03.246Z,100389.09
2022-09-05T01:52:35.005Z,100382.81
2022-09-05T01:53:06.492Z,100377.31
2022-09-05T01:53:38.463Z,100383.91
2022-09-05T01:54:18.551Z,100380.88
2022-09-05T01:54:57.452Z,100380.06
2022-09-05T01:55:30.047Z,100379.25
2022-09-05T01:56:06.386Z,100385.53
2022-09-05T01:56:42.916Z,100383.91
2022-09-05T01:57:14.436Z,100385.53
2022-09-05T01:57:49.745Z,100375.19
2022-09-05T01:58:21.963Z,100377.91
2022-09-05T01:58:53.527Z,100382.28
2022-09-05T01:59:25.293Z,100380.06
2022-09-05T01:59:57.023Z,100383.91
2022-09-05T02:00:28.552Z,100376.50
2022-09-05T02:01:32.106Z,100376.50
2022-09-05T02:01:52.609Z,100378.44
2022-09-05T02:02:24.369Z,100384.19
2022-09-05T02:02:56.133Z,100384.19
2022-09-05T02:03:27.687Z,100384.19
2022-09-05T02:03:59.415Z,100385.81
2022-09-05T02:04:36.073Z,100381.47
2022-09-05T02:05:07.716Z,100382.28
2022-09-05T02:05:48.405Z,100379.53
2022-09-05T02:06:21.563Z,100378.44
2022-09-05T02:06:53.580Z,100381.47
2022-09-05T02:07:31.317Z,100381.75
2022-09-05T02:08:03.438Z,100374.34
2022-09-05T02:08:35.342Z,100381.75
2022-09-05T02:09:07.217Z,100376.28
2022-09-05T02:09:38.701Z,100372.44
2022-09-05T02:10:10.792Z,100380.63
2022-09-05T02:10:42.359Z,100380.63
2022-09-05T02:11:14.160Z,100378.44
2022-09-05T02:11:45.783Z,100378.19
2022-09-05T02:12:18.052Z,100380.94
2022-09-05T02:12:58.507Z,100380.13
2022-09-05T02:13:34.800Z,100380.63
2022-09-05T02:14:06.543Z,100376.56
2022-09-05T02:14:38.050Z,100380.63
2022-09-05T02:15:09.455Z,100370.53
2022-09-05T02:15:52.444Z,100379.53
2022-09-05T02:16:31.585Z,100380.63
2022-09-05T02:17:03.399Z,100379.81
2022-09-05T02:17:50.111Z,100387.75
2022-09-05T02:18:23.678Z,100379.53
2022-09-05T02:18:55.326Z,100381.47
2022-09-05T02:19:27.151Z,100379.53
2022-09-05T02:19:58.591Z,100381.47
2022-09-05T02:20:30.446Z,100379.00
2022-09-05T02:21:02.015Z,100379.00
2022-09-05T02:21:33.533Z,100382.28
2022-09-05T02:22:13.641Z,100376.00
2022-09-05T02:22:45.459Z,100381.47
2022-09-05T02:23:34.219Z,100379.53
2022-09-05T02:24:08.911Z,100386.63
2022-09-05T02:24:40.386Z,100388.56
2022-09-05T02:26:00.599Z,100386.34
2022-09-05T02:26:03.805Z,100385.25
2022-09-05T02:26:35.501Z,100382.22
2022-09-05T02:27:07.008Z,100381.41
2022-09-05T02:28:05.066Z,100387.69
2022-09-05T02:28:30.599Z,100370.75
2022-09-05T02:29:02.339Z,100385.25
2022-09-05T02:29:34.758Z,100379.47
2022-09-05T02:30:06.132Z,100383.31
2022-09-05T02:30:58.996Z,100389.91
2022-09-05T02:31:31.936Z,100381.97
2022-09-05T02:32:04.142Z,100384.44
2022-09-05T02:32:35.576Z,100379.53
2022-09-05T02:33:10.707Z,100382.56
2022-09-05T02:33:42.655Z,100385.00
2022-09-05T02:34:14.079Z,100378.19
2022-09-05T02:34:45.630Z,100380.13
2022-09-05T02:35:17.885Z,100375.47
2022-09-05T02:35:49.733Z,100382.03
2022-09-05T02:36:21.221Z,100378.19
2022-09-05T02:36:52.653Z,100381.75
2022-09-05T02:38:41.157Z,100382.84
2022-09-05T02:40:23.310Z,100376.56
2022-09-05T02:45:02.628Z,100385.88
2022-09-05T02:45:03.629Z,100379.31
2022-09-05T02:45:06.971Z,100382.84
2022-09-05T02:45:08.419Z,100374.94
2022-09-05T02:45:14.353Z,100387.50
2022-09-05T02:45:14.650Z,100382.03
2022-09-05T02:45:14.653Z,100378.78
2022-09-05T02:45:25.666Z,100381.50
2022-09-05T02:45:58.206Z,100382.63
2022-09-05T02:46:29.819Z,100380.69
2022-09-05T02:47:01.682Z,100385.88
2022-09-05T02:47:33.982Z,100383.44
2022-09-05T02:48:15.549Z,100381.81
2022-09-05T02:48:47.962Z,100382.31
2022-09-05T02:49:41.904Z,100379.88
2022-09-05T02:54:24.081Z,100383.72
2022-09-05T02:57:26.182Z,100387.28
2022-09-05T02:57:28.020Z,100382.91
2022-09-05T02:57:33.109Z,100377.97
2022-09-05T02:57:33.492Z,100377.97
2022-09-05T02:57:35.085Z,100379.59
2022-09-05T02:57:35.237Z,100378.78
2022-09-05T02:57:37.226Z,100380.41
2022-09-05T02:57:41.939Z,100378.50
2022-09-05T02:58:08.111Z,100379.88
2022-09-05T02:59:08.092Z,100383.44
2022-09-05T02:59:36.461Z,100381.00
2022-09-05T03:00:08.398Z,100382.91
2022-09-05T03:00:39.949Z,100378.25
2022-09-05T03:01:11.403Z,100376.34
2022-09-05T03:01:43.561Z,100377.44
2022-09-05T03:02:26.515Z,100379.34
2022-09-05T03:02:58.463Z,100381.28
2022-09-05T03:03:29.946Z,100378.53
2022-09-05T03:04:01.386Z,100382.63
2022-09-05T03:04:33.217Z,100375.00
2022-09-05T03:05:05.404Z,100382.38
2022-09-05T03:05:37.220Z,100385.63
2022-09-05T03:06:08.622Z,100382.09
2022-09-05T03:06:40.521Z,100378.53
2022-09-05T03:07:11.930Z,100376.63
2022-09-05T03:07:44.004Z,100379.88
2022-09-05T03:08:15.603Z,100381.00
2022-09-05T03:08:47.374Z,100378.84
2022-09-05T03:09:20.145Z,100374.19
2022-09-05T03:09:51.571Z,100375.81
2022-09-05T03:10:26.705Z,100375.81
2022-09-05T03:11:06.415Z,100376.91
2022-09-05T03:11:38.728Z,100384.81
2022-09-05T03:12:28.584Z,100380.75
2022-09-05T03:13:01.428Z,100380.47
2022-09-05T03:13:33.739Z,100376.91
2022-09-05T03:14:05.246Z,100379.13
2022-09-05T03:14:37.557Z,100383.19
2022-09-05T03:15:22.455Z,100382.38
2022-09-05T03:15:54.710Z,100376.09
2022-09-05T03:16:26.246Z,100376.91
2022-09-05T03:16:57.696Z,100376.09
2022-09-05T03:17:29.509Z,100378.00
2022-09-05T03:18:20.359Z,100381.84
2022-09-05T03:18:53.438Z,100381.03
2022-09-05T03:19:25.216Z,100384.59
2022-09-05T03:19:57.043Z,100379.13
2022-09-05T03:20:28.555Z,100379.94
2022-09-05T03:21:09.620Z,100378.84
2022-09-05T03:21:41.318Z,100379.94
2022-09-05T03:22:13.562Z,100380.75
2022-09-05T03:22:48.047Z,100384.59
2022-09-05T03:23:19.540Z,100379.94
2022-09-05T03:23:51.168Z,100375.28
2022-09-05T03:24:22.785Z,100379.94
2022-09-05T03:24:56.160Z,100384.00
2022-09-05T03:25:28.019Z,100373.38
2022-09-05T03:26:01.986Z,100376.91
2022-09-05T03:26:34.024Z,100378.00
2022-09-05T03:27:06.004Z,100379.94
2022-09-05T03:27:40.135Z,100381.56
2022-09-05T03:28:11.917Z,100377.72
2022-09-05T03:28:43.931Z,100376.91
2022-09-05T03:29:15.347Z,100374.19
2022-09-05T03:29:47.025Z,100372.56
2022-09-05T03:30:21.372Z,100376.38
2022-09-05T03:30:53.633Z,100379.13
2022-09-05T03:31:25.565Z,100381.34
2022-09-05T03:31:57.453Z,100370.91
2022-09-05T03:32:29.186Z,100379.13
2022-09-05T03:33:00.651Z,100376.38
2022-09-05T03:33:32.540Z,100378.31
2022-09-05T03:34:04.119Z,100378.00
2022-09-05T03:34:36.272Z,100381.84
2022-09-05T03:35:08.827Z,100381.84
2022-09-05T03:35:40.848Z,100379.13
2022-09-05T03:36:12.377Z,100370.09
2022-09-05T03:36:44.016Z,100380.75
2022-09-05T03:37:16.140Z,100379.13
2022-09-05T03:37:47.598Z,100379.94
2022-09-05T03:38:20.875Z,100375.28
2022-09-05T03:38:52.360Z,100379.94
2022-09-05T03:39:24.037Z,100375.56
2022-09-05T03:39:55.580Z,100382.38
2022-09-05T03:40:30.205Z,100379.94
2022-09-05T03:41:01.755Z,100379.13
2022-09-05T03:41:40.460Z,100380.22
2022-09-05T03:42:14.869Z,100379.13
2022-09-05T03:42:46.567Z,100373.66
2022-09-05T03:43:18.191Z,100373.66
2022-09-05T03:43:49.635Z,100377.50
2022-09-05T03:44:21.235Z,100378.31
2022-09-05T03:44:52.615Z,100381.56
2022-09-05T03:45:33.591Z,100375.28
2022-09-05T03:46:09.440Z,100373.66
2022-09-05T03:46:41.454Z,100374.47
2022-09-05T03:47:12.872Z,100382.38
2022-09-05T03:47:44.320Z,100384.59
2022-09-05T03:48:53.728Z,100379.13
2022-09-05T03:50:11.901Z,100378.00
2022-09-05T03:53:11.479Z,100380.75
2022-09-05T03:56:16.090Z,100381.56
2022-09-05T03:57:06.311Z,100382.38
2022-09-05T03:57:10.634Z,100385.94
2022-09-05T03:57:10.710Z,100380.75
2022-09-05T03:57:15.840Z,100379.66
2022-09-05T03:57:17.189Z,100383.19
2022-09-05T03:57:18.178Z,100382.38
2022-09-05T03:57:27.025Z,100385.94
2022-09-05T03:57:43.166Z,100384.31
2022-09-05T03:58:16.908Z,100376.91
2022-09-05T03:58:57.555Z,100386.22
2022-09-05T03:59:29.230Z,100381.84
2022-09-05T04:00:03.401Z,100379.13
2022-09-05T04:00:34.838Z,100381.56
2022-09-05T04:01:13.937Z,100387.84
2022-09-05T04:05:41.967Z,100380.75
2022-09-05T04:08:05.988Z,100378.00
2022-09-05T04:08:06.280Z,100382.97
2022-09-05T04:08:11.395Z,100384.59
2022-09-05T04:08:14.344Z,100374.75
2022-09-05T04:08:19.425Z,100387.63
2022-09-05T04:08:24.101Z,100380.22
2022-09-05T04:08:24.163Z,100380.75
2022-09-05T04:08:51.562Z,100383.78
2022-09-05T04:09:43.337Z,100383.78
2022-09-05T04:10:14.920Z,100381.84
2022-09-05T04:10:46.545Z,100390.06
2022-09-05T04:11:22.003Z,100388.66
2022-09-05T04:11:54.239Z,100386.22
2022-09-05T04:12:25.709Z,100384.31
2022-09-05T04:12:57.278Z,100382.97
2022-09-05T04:13:28.688Z,100386.75
2022-09-05T04:14:01.117Z,100384.00
2022-09-05T04:14:32.482Z,100384.00
2022-09-05T04:15:08.644Z,100385.63
2022-09-05T04:15:40.503Z,100381.81
2022-09-05T04:16:12.166Z,100378.53
2022-09-05T04:16:43.674Z,100378.53
2022-09-05T04:17:15.684Z,100378.25
2022-09-05T04:17:47.463Z,100384.81
2022-09-05T04:18:25.699Z,100381.28
2022-09-05T04:19:05.465Z,100379.66
2022-09-05T04:19:37.112Z,100385.63
2022-09-05T04:20:08.538Z,100378.00
2022-09-05T04:20:40.937Z,100382.91
2022-09-05T04:21:13.388Z,100384.31
2022-09-05T04:21:45.052Z,100382.66
2022-09-05T04:22:16.969Z,100386.22
2022-09-05T04:22:48.372Z,100381.84
2022-09-05T04:23:20.010Z,100386.22
2022-09-05T04:23:56.676Z,100386.22
2022-09-05T04:24:28.124Z,100387.84
2022-09-05T04:24:59.535Z,100385.41
2022-09-05T04:25:31.191Z,100384.31
2022-09-05T04:26:12.151Z,100380.75
2022-09-05T04:26:44.404Z,100387.03
2022-09-05T04:27:15.973Z,100384.59
2022-09-05T04:27:47.637Z,100390.06
2022-09-05T04:28:19.437Z,100390.06
2022-09-05T04:28:53.849Z,100394.41
2022-09-05T04:29:25.753Z,100387.63
2022-09-05T04:29:57.252Z,100387.31
2022-09-05T04:30:39.913Z,100388.44
2022-09-05T04:31:12.439Z,100385.69
2022-09-05T04:31:44.269Z,100387.63
2022-09-05T04:32:18.874Z,100390.06
2022-09-05T04:32:54.692Z,100384.59
2022-09-05T04:33:36.161Z,100382.66
2022-09-05T04:34:08.486Z,100383.78
2022-09-05T04:34:39.995Z,100387.63
2022-09-05T04:35:11.383Z,100390.06
2022-09-05T04:35:42.943Z,100384.06
2022-09-05T04:36:18.027Z,100387.63
2022-09-05T04:36:50.083Z,100393.06
2022-09-05T04:37:21.453Z,100390.34
2022-09-05T04:37:53.546Z,100385.97
2022-09-05T04:38:25.535Z,100396.63
2022-09-05T04:38:57.483Z,100389.81
2022-09-05T04:39:31.229Z,100386.78
2022-09-05T04:40:02.744Z,100385.16
2022-09-05T04:40:34.229Z,100385.16
2022-09-05T04:41:05.643Z,100388.19
2022-09-05T04:41:39.800Z,100390.09
2022-09-05T04:42:12.152Z,100382.44
2022-09-05T04:42:43.571Z,100385.97
2022-09-05T04:43:15.559Z,100391.75
2022-09-05T04:43:47.190Z,100389.28
2022-09-05T04:44:18.581Z,100392.84
2022-09-05T04:44:50.458Z,100381.63
2022-09-05T04:45:27.233Z,100392.84
2022-09-05T04:45:58.761Z,100384.34
2022-09-05T04:46:31.091Z,100393.13
2022-09-05T04:47:05.556Z,100387.66
2022-09-05T04:47:37.667Z,100392.03
2022-09-05T04:48:11.172Z,100394.47
2022-09-05T04:48:44.399Z,100394.47
2022-09-05T04:49:16.300Z,100398.31
2022-09-05T04:49:48.448Z,100395.56
2022-09-05T04:50:23.408Z,100396.69
2022-09-05T04:50:55.473Z,100393.66
2022-09-05T04:51:29.277Z,100397.50
2022-09-05T04:52:03.385Z,100401.84
2022-09-05T04:52:35.334Z,100395.56
2022-09-05T04:53:07.012Z,100392.84
2022-09-05T04:53:38.387Z,100398.59
2022-09-05T04:54:10.240Z,100397.78
2022-09-05T04:54:41.690Z,100400.81
2022-09-05T04:55:13.679Z,100405.97
2022-09-05T04:55:51.000Z,100401.03
2022-09-05T04:56:22.600Z,100397.50
2022-09-05T04:56:54.111Z,100400.50
2022-09-05T04:57:25.960Z,100398.06
2022-09-05T04:57:57.465Z,100397.78
2022-09-05T04:58:50.734Z,100397.78
2022-09-05T05:02:15.088Z,100394.53
2022-09-05T05:03:18.621Z,100398.94
2022-09-05T05:05:58.220Z,100400.09
2022-09-05T05:06:02.224Z,100402.63
2022-09-05T05:06:12.749Z,100403.81
2022-09-05T05:06:16.109Z,100407.41
2022-09-05T05:06:18.351Z,100408.41
2022-09-05T05:06:19.103Z,100402.19
2022-09-05T05:07:08.095Z,100405.28
2022-09-05T05:07:40.737Z,100408.25
2022-09-05T05:08:12.363Z,100409.38
2022-09-05T05:08:44.399Z,100409.66
2022-09-05T05:09:16.137Z,100414.56
2022-09-05T05:09:47.594Z,100413.75
2022-09-05T05:14:19.570Z,100412.09
2022-09-05T05:15:00.100Z,100415.88
2022-09-05T05:17:54.277Z,100412.50
2022-09-05T05:17:58.850Z,100418.81
2022-09-05T05:17:59.665Z,100421.31
2022-09-05T05:18:09.961Z,100411.03
2022-09-05T05:18:11.490Z,100415.09
2022-09-05T05:18:12.645Z,100418.16
2022-09-05T05:18:14.228Z,100415.19
2022-09-05T05:18:53.197Z,100412.38
2022-09-05T05:19:05.139Z,100408.53
2022-09-05T05:19:39.242Z,100410.16
2022-09-05T05:20:43.004Z,100413.69
2022-09-05T05:21:02.609Z,100415.63
2022-09-05T05:21:34.691Z,100410.97
2022-09-05T05:22:06.574Z,100412.59
2022-09-05T05:22:38.263Z,100403.31
2022-09-05T05:23:09.809Z,100416.69
2022-09-05T05:23:41.604Z,100417.22
2022-09-05T05:24:13.158Z,100412.84
2022-09-05T05:24:44.540Z,100410.91
2022-09-05T05:25:16.501Z,100415.28
2022-09-05T05:25:49.245Z,100416.91
2022-09-05T05:26:20.694Z,100404.34
2022-09-05T05:26:56.831Z,100419.13
2022-09-05T05:27:28.865Z,100412.03
2022-09-05T05:28:00.570Z,100409.81
2022-09-05T05:28:41.709Z,100409.81
2022-09-05T05:29:16.379Z,100408.72
2022-09-05T05:29:51.070Z,100411.97
2022-09-05T05:30:23.185Z,100403.78
2022-09-05T05:30:58.276Z,100416.06
2022-09-05T05:31:32.960Z,100412.50
2022-09-05T05:32:05.308Z,100416.34
2022-09-05T05:32:45.195Z,100411.41
2022-09-05T05:33:18.194Z,100414.41
2022-09-05T05:33:49.576Z,100413.31
2022-09-05T05:34:24.644Z,100412.22
2022-09-05T05:34:56.983Z,100420.72
2022-09-05T05:35:28.572Z,100415.75
2022-09-05T05:36:00.797Z,100415.75
2022-09-05T05:36:32.522Z,100418.78
2022-09-05T05:37:04.270Z,100415.25
2022-09-05T05:37:36.238Z,100427.00
2022-09-05T05:38:08.275Z,100418.78
2022-09-05T05:38:41.044Z,100416.88
2022-09-05T05:39:12.783Z,100417.97
2022-09-05T05:39:44.890Z,100419.38
2022-09-05T05:40:16.575Z,100412.25
2022-09-05T05:40:51.223Z,100413.59
2022-09-05T05:41:24.061Z,100411.16
2022-09-05T05:41:55.614Z,100418.25
2022-09-05T05:42:27.171Z,100419.06
2022-09-05T05:42:59.190Z,100419.06
2022-09-05T05:43:30.624Z,100415.25
2022-09-05T05:44:04.164Z,100410.88
2022-09-05T05:44:35.572Z,100412.50
2022-09-05T05:45:07.518Z,100414.13
2022-09-05T05:45:39.304Z,100416.88
2022-09-05T05:46:10.904Z,100415.75
2022-09-05T05:46:42.304Z,100411.69
2022-09-05T05:47:14.372Z,100418.78
2022-09-05T05:47:45.777Z,100418.50
2022-09-05T05:48:17.275Z,100417.97
2022-09-05T05:48:57.235Z,100417.97
2022-09-05T05:49:29.381Z,100415.25
2022-09-05T05:50:01.293Z,100427.50
2022-09-05T05:50:32.977Z,100416.88
2022-09-05T05:51:05.057Z,100416.88
2022-09-05T05:52:01.476Z,100419.59
2022-09-05T05:52:28.347Z,100413.03
2022-09-05T05:52:59.903Z,100414.94
2022-09-05T05:53:43.384Z,100418.50
2022-09-05T05:54:16.038Z,100419.59
2022-09-05T05:54:47.410Z,100421.22
2022-09-05T05:55:45.234Z,100420.41
2022-09-05T05:56:10.562Z,100426.69
2022-09-05T05:56:42.607Z,100425.88
2022-09-05T05:57:14.975Z,100426.69
2022-09-05T05:57:46.715Z,100424.25
2022-09-05T05:58:18.506Z,100431.34
2022-09-05T05:58:50.091Z,100430.53
2022-09-05T05:59:24.754Z,100434.38
2022-09-05T05:59:57.631Z,100427.00
2022-09-05T06:00:30.724Z,100428.91
2022-09-05T06:01:02.527Z,100432.47
2022-09-05T06:01:37.889Z,100433.28
2022-09-05T06:02:10.456Z,100435.19
2022-09-05T06:02:42.071Z,100444.50
2022-09-05T06:03:26.339Z,100433.56
2022-09-05T06:03:58.734Z,100432.75
2022-09-05T06:04:30.352Z,100435.47
2022-09-05T06:05:04.058Z,100440.94
2022-09-05T06:05:36.016Z,100427.28
2022-09-05T06:06:07.669Z,100435.75
2022-09-05T06:06:39.223Z,100443.69
2022-09-05T06:07:10.702Z,100442.03
2022-09-05T06:08:10.227Z,100440.13
2022-09-05T06:11:06.064Z,100441.22
2022-09-05T06:13:57.135Z,100436.06
2022-09-05T06:14:50.428Z,100431.13
2022-09-05T06:14:50.836Z,100436.28
2022-09-05T06:14:57.365Z,100441.72
2022-09-05T06:15:02.504Z,100433.28
2022-09-05T06:15:02.641Z,100432.16
2022-09-05T06:15:06.123Z,100436.25
2022-09-05T06:15:27.867Z,100440.91
2022-09-05T06:16:05.776Z,100440.91
2022-09-05T06:16:38.382Z,100440.91
2022-09-05T06:17:10.046Z,100435.44
2022-09-05T06:17:41.459Z,100434.63
2022-09-05T06:18:13.399Z,100434.31
2022-09-05T06:18:45.708Z,100438.69
2022-09-05T06:19:17.884Z,100436.78
2022-09-05T06:21:01.922Z,100443.06
2022-09-05T06:22:04.999Z,100441.94
2022-09-05T06:22:09.577Z,100439.22
2022-09-05T06:22:25.064Z,100435.13
2022-09-05T06:22:56.479Z,100438.69
2022-09-05T06:23:38.886Z,100444.69
2022-09-05T06:24:11.390Z,100434.84
2022-09-05T06:24:42.829Z,100440.31
2022-09-05T06:25:17.219Z,100433.75
2022-09-05T06:25:49.089Z,100441.66
2022-09-05T06:26:21.060Z,100436.47
2022-09-05T06:26:52.456Z,100439.22
2022-09-05T06:27:24.218Z,100432.66
2022-09-05T06:28:17.673Z,100435.38
2022-09-05T06:28:47.409Z,100441.38
2022-09-05T06:29:19.072Z,100439.75
2022-09-05T06:29:51.209Z,100440.56
2022-09-05T06:30:22.726Z,100435.38
2022-09-05T06:30:57.634Z,100442.78
2022-09-05T06:31:45.871Z,100436.19
2022-09-05T06:32:17.465Z,100431.84
2022-09-05T06:32:58.400Z,100434.28
2022-09-05T06:33:30.494Z,100441.38
2022-09-05T06:34:02.692Z,100433.47
2022-09-05T06:34:35.809Z,100434.28
2022-09-05T06:35:07.552Z,100435.91
2022-09-05T06:35:39.116Z,100440.56
2022-09-05T06:36:10.636Z,100436.72
2022-09-05T06:36:42.313Z,100433.47
2022-09-05T06:37:16.658Z,100431.25
2022-09-05T06:37:48.453Z,100430.44
2022-09-05T06:38:20.584Z,100435.91
2022-09-05T06:38:52.672Z,100435.09
2022-09-05T06:39:24.317Z,100436.72
2022-09-05T06:39:55.729Z,100433.16
2022-09-05T06:40:31.912Z,100434.00
2022-09-05T06:41:03.580Z,100434.00
2022-09-05T06:41:35.276Z,100431.78
2022-09-05T06:42:07.067Z,100432.88
2022-09-05T06:42:46.463Z,100430.97
2022-09-05T06:43:18.306Z,100432.59
2022-09-05T06:43:50.343Z,100428.22
2022-09-05T06:44:21.726Z,100438.06
2022-09-05T06:44:55.662Z,100436.16
2022-09-05T06:45:32.099Z,100436.16
2022-09-05T06:46:03.743Z,100436.16
2022-09-05T06:46:55.617Z,100431.78
2022-09-05T06:47:34.433Z,100435.31
2022-09-05T06:48:06.219Z,100439.97
2022-09-05T06:48:41.212Z,100437.25
2022-09-05T06:49:30.251Z,100435.31
2022-09-05T06:50:26.900Z,100437.25
2022-09-05T06:50:57.599Z,100444.34
2022-09-05T06:51:44.232Z,100442.44